sensor_id;sensor_type;location;lat;lon;timestamp;temperature;humidity
32147;DHT22;32190;49.112;8.598;2022-07-29T00:01:42;28.40;38.20
32147;DHT22;32190;49.112;8.598;2022-07-29T00:07:33;28.30;38.00
32147;DHT22;32190;49.112;8.598;2022-07-29T00:13:24;28.30;38.10
32147;DHT22;32190;49.112;8.598;2022-07-29T00:19:14;28.30;38.30
32147;DHT22;32190;49.112;8.598;2022-07-29T00:25:06;28.20;38.50
32147;DHT22;32190;49.112;8.598;2022-07-29T00:30:57;28.20;38.80
32147;DHT22;32190;49.112;8.598;2022-07-29T00:36:48;28.10;38.60
32147;DHT22;32190;49.112;8.598;2022-07-29T00:42:46;28.10;39.10
32147;DHT22;32190;49.112;8.598;2022-07-29T00:48:37;27.90;39.00
32147;DHT22;32190;49.112;8.598;2022-07-29T00:54:28;27.90;39.00
32147;DHT22;32190;49.112;8.598;2022-07-29T01:00:23;27.80;39.00
32147;DHT22;32190;49.112;8.598;2022-07-29T01:06:16;27.80;39.20
32147;DHT22;32190;49.112;8.598;2022-07-29T01:12:08;27.80;39.70
32147;DHT22;32190;49.112;8.598;2022-07-29T01:18:24;27.80;39.70
32147;DHT22;32190;49.112;8.598;2022-07-29T01:24:36;27.70;40.30
32147;DHT22;32190;49.112;8.598;2022-07-29T01:30:31;27.60;40.30
32147;DHT22;32190;49.112;8.598;2022-07-29T01:36:38;27.50;40.20
32147;DHT22;32190;49.112;8.598;2022-07-29T01:42:54;27.40;40.60
32147;DHT22;32190;49.112;8.598;2022-07-29T01:48:59;27.30;40.90
32147;DHT22;32190;49.112;8.598;2022-07-29T01:54:56;27.20;41.30
32147;DHT22;32190;49.112;8.598;2022-07-29T02:00:48;27.10;40.90
32147;DHT22;32190;49.112;8.598;2022-07-29T02:06:40;27.20;40.70
32147;DHT22;32190;49.112;8.598;2022-07-29T02:12:33;27.20;40.90
32147;DHT22;32190;49.112;8.598;2022-07-29T02:18:25;27.30;40.80
32147;DHT22;32190;49.112;8.598;2022-07-29T02:24:18;27.40;40.90
32147;DHT22;32190;49.112;8.598;2022-07-29T02:30:09;27.40;40.90
32147;DHT22;32190;49.112;8.598;2022-07-29T02:36:02;27.30;41.10
32147;DHT22;32190;49.112;8.598;2022-07-29T02:42:02;27.30;41.30
32147;DHT22;32190;49.112;8.598;2022-07-29T02:47:55;27.20;41.80
32147;DHT22;32190;49.112;8.598;2022-07-29T02:53:50;27.20;41.50
32147;DHT22;32190;49.112;8.598;2022-07-29T02:59:43;27.10;41.90
32147;DHT22;32190;49.112;8.598;2022-07-29T03:05:35;27.00;42.00
32147;DHT22;32190;49.112;8.598;2022-07-29T03:11:26;26.80;42.00
32147;DHT22;32190;49.112;8.598;2022-07-29T03:17:17;26.60;42.30
32147;DHT22;32190;49.112;8.598;2022-07-29T03:23:08;26.50;42.10
32147;DHT22;32190;49.112;8.598;2022-07-29T03:28:59;26.40;42.30
32147;DHT22;32190;49.112;8.598;2022-07-29T03:34:50;26.40;42.40
32147;DHT22;32190;49.112;8.598;2022-07-29T03:40:54;26.40;42.60
32147;DHT22;32190;49.112;8.598;2022-07-29T03:46:46;26.40;43.00
32147;DHT22;32190;49.112;8.598;2022-07-29T03:52:38;26.40;42.80
32147;DHT22;32190;49.112;8.598;2022-07-29T03:58:30;26.30;42.90
32147;DHT22;32190;49.112;8.598;2022-07-29T04:04:21;26.20;43.00
32147;DHT22;32190;49.112;8.598;2022-07-29T04:10:12;26.10;43.10
32147;DHT22;32190;49.112;8.598;2022-07-29T04:16:03;26.10;43.40
32147;DHT22;32190;49.112;8.598;2022-07-29T04:21:54;25.90;43.20
32147;DHT22;32190;49.112;8.598;2022-07-29T04:27:44;25.90;43.20
32147;DHT22;32190;49.112;8.598;2022-07-29T04:33:53;26.00;43.20
32147;DHT22;32190;49.112;8.598;2022-07-29T04:39:43;26.10;43.30
32147;DHT22;32190;49.112;8.598;2022-07-29T04:45:34;26.10;44.20
32147;DHT22;32190;49.112;8.598;2022-07-29T04:51:25;26.10;43.30
32147;DHT22;32190;49.112;8.598;2022-07-29T04:57:15;26.10;43.60
32147;DHT22;32190;49.112;8.598;2022-07-29T05:03:06;26.10;44.00
32147;DHT22;32190;49.112;8.598;2022-07-29T05:08:56;26.10;44.10
32147;DHT22;32190;49.112;8.598;2022-07-29T05:14:47;26.10;44.30
32147;DHT22;32190;49.112;8.598;2022-07-29T05:20:37;26.10;44.30
32147;DHT22;32190;49.112;8.598;2022-07-29T05:26:28;26.20;44.70
32147;DHT22;32190;49.112;8.598;2022-07-29T05:32:18;26.20;44.30
32147;DHT22;32190;49.112;8.598;2022-07-29T05:38:09;26.20;44.30
32147;DHT22;32190;49.112;8.598;2022-07-29T05:44:00;26.30;44.80
32147;DHT22;32190;49.112;8.598;2022-07-29T05:49:50;26.50;44.90
32147;DHT22;32190;49.112;8.598;2022-07-29T05:55:41;26.40;45.20
32147;DHT22;32190;49.112;8.598;2022-07-29T06:01:31;26.40;45.10
32147;DHT22;32190;49.112;8.598;2022-07-29T06:07:22;26.50;45.60
32147;DHT22;32190;49.112;8.598;2022-07-29T06:13:13;26.90;45.80
32147;DHT22;32190;49.112;8.598;2022-07-29T06:19:06;27.20;45.00
32147;DHT22;32190;49.112;8.598;2022-07-29T06:24:56;27.40;44.40
32147;DHT22;32190;49.112;8.598;2022-07-29T06:30:47;27.70;43.90
32147;DHT22;32190;49.112;8.598;2022-07-29T06:36:38;27.70;43.60
32147;DHT22;32190;49.112;8.598;2022-07-29T06:42:28;27.90;43.40
32147;DHT22;32190;49.112;8.598;2022-07-29T06:48:19;28.00;43.00
32147;DHT22;32190;49.112;8.598;2022-07-29T06:54:10;28.20;43.00
32147;DHT22;32190;49.112;8.598;2022-07-29T07:00:00;28.50;42.70
32147;DHT22;32190;49.112;8.598;2022-07-29T07:05:52;28.90;42.20
32147;DHT22;32190;49.112;8.598;2022-07-29T07:11:43;29.50;42.00
32147;DHT22;32190;49.112;8.598;2022-07-29T07:17:33;29.80;41.40
32147;DHT22;32190;49.112;8.598;2022-07-29T07:23:25;30.10;41.30
32147;DHT22;32190;49.112;8.598;2022-07-29T07:29:15;30.30;41.00
32147;DHT22;32190;49.112;8.598;2022-07-29T07:35:07;30.50;40.80
32147;DHT22;32190;49.112;8.598;2022-07-29T07:40:59;30.60;40.50
32147;DHT22;32190;49.112;8.598;2022-07-29T07:46:49;30.60;40.10
32147;DHT22;32190;49.112;8.598;2022-07-29T07:52:48;30.60;40.20
32147;DHT22;32190;49.112;8.598;2022-07-29T07:58:39;30.60;40.20
32147;DHT22;32190;49.112;8.598;2022-07-29T08:04:29;30.40;40.20
32147;DHT22;32190;49.112;8.598;2022-07-29T08:10:20;30.30;40.10
32147;DHT22;32190;49.112;8.598;2022-07-29T08:16:29;30.20;40.30
32147;DHT22;32190;49.112;8.598;2022-07-29T08:22:19;30.10;40.20
32147;DHT22;32190;49.112;8.598;2022-07-29T08:28:10;30.00;40.40
32147;DHT22;32190;49.112;8.598;2022-07-29T08:34:01;30.00;40.70
32147;DHT22;32190;49.112;8.598;2022-07-29T08:39:52;30.10;40.70
32147;DHT22;32190;49.112;8.598;2022-07-29T08:45:48;30.00;40.40
32147;DHT22;32190;49.112;8.598;2022-07-29T08:51:40;29.90;40.20
32147;DHT22;32190;49.112;8.598;2022-07-29T08:57:31;29.90;40.20
32147;DHT22;32190;49.112;8.598;2022-07-29T09:03:26;29.90;40.40
32147;DHT22;32190;49.112;8.598;2022-07-29T09:09:17;30.00;40.10
32147;DHT22;32190;49.112;8.598;2022-07-29T09:15:08;30.00;40.00
32147;DHT22;32190;49.112;8.598;2022-07-29T09:20:59;30.10;39.80
32147;DHT22;32190;49.112;8.598;2022-07-29T09:27:20;30.10;39.60
32147;DHT22;32190;49.112;8.598;2022-07-29T09:33:11;30.10;39.40
32147;DHT22;32190;49.112;8.598;2022-07-29T09:39:03;30.20;39.00
32147;DHT22;32190;49.112;8.598;2022-07-29T09:44:53;30.20;38.80
32147;DHT22;32190;49.112;8.598;2022-07-29T09:50:45;30.30;38.80
32147;DHT22;32190;49.112;8.598;2022-07-29T09:56:41;30.30;38.40
32147;DHT22;32190;49.112;8.598;2022-07-29T10:02:33;30.40;38.40
32147;DHT22;32190;49.112;8.598;2022-07-29T10:08:27;30.40;38.20
32147;DHT22;32190;49.112;8.598;2022-07-29T10:14:18;30.50;38.20
32147;DHT22;32190;49.112;8.598;2022-07-29T10:20:09;30.60;37.80
32147;DHT22;32190;49.112;8.598;2022-07-29T10:26:00;30.70;37.50
32147;DHT22;32190;49.112;8.598;2022-07-29T10:32:12;30.70;37.20
32147;DHT22;32190;49.112;8.598;2022-07-29T10:44:27;30.90;37.00
32147;DHT22;32190;49.112;8.598;2022-07-29T10:50:17;30.90;36.80
32147;DHT22;32190;49.112;8.598;2022-07-29T10:56:26;30.90;36.90
32147;DHT22;32190;49.112;8.598;2022-07-29T11:08:26;31.00;36.60
32147;DHT22;32190;49.112;8.598;2022-07-29T11:14:17;31.20;36.90
32147;DHT22;32190;49.112;8.598;2022-07-29T11:20:45;31.30;36.20
32147;DHT22;32190;49.112;8.598;2022-07-29T11:26:37;31.30;35.20
32147;DHT22;32190;49.112;8.598;2022-07-29T11:32:36;31.40;35.80
32147;DHT22;32190;49.112;8.598;2022-07-29T11:38:28;31.50;36.10
32147;DHT22;32190;49.112;8.598;2022-07-29T11:50:48;31.60;36.00
32147;DHT22;32190;49.112;8.598;2022-07-29T11:56:39;31.70;36.00
32147;DHT22;32190;49.112;8.598;2022-07-29T12:02:41;31.90;35.80
32147;DHT22;32190;49.112;8.598;2022-07-29T12:08:40;32.00;35.90
32147;DHT22;32190;49.112;8.598;2022-07-29T12:14:33;32.10;35.80
32147;DHT22;32190;49.112;8.598;2022-07-29T12:20:26;32.20;35.60
32147;DHT22;32190;49.112;8.598;2022-07-29T12:26:17;32.30;35.40
32147;DHT22;32190;49.112;8.598;2022-07-29T12:32:09;32.30;35.60
32147;DHT22;32190;49.112;8.598;2022-07-29T12:38:00;32.30;35.40
32147;DHT22;32190;49.112;8.598;2022-07-29T12:43:54;32.40;35.00
32147;DHT22;32190;49.112;8.598;2022-07-29T12:49:45;32.40;34.90
32147;DHT22;32190;49.112;8.598;2022-07-29T12:55:40;32.50;35.00
32147;DHT22;32190;49.112;8.598;2022-07-29T13:01:36;32.50;34.80
32147;DHT22;32190;49.112;8.598;2022-07-29T13:07:29;32.60;34.70
32147;DHT22;32190;49.112;8.598;2022-07-29T13:13:20;32.60;34.40
32147;DHT22;32190;49.112;8.598;2022-07-29T13:19:12;32.60;34.90
32147;DHT22;32190;49.112;8.598;2022-07-29T13:25:02;32.60;35.00
32147;DHT22;32190;49.112;8.598;2022-07-29T13:30:53;32.60;35.10
32147;DHT22;32190;49.112;8.598;2022-07-29T13:36:44;32.60;34.40
32147;DHT22;32190;49.112;8.598;2022-07-29T13:42:34;32.70;34.40
32147;DHT22;32190;49.112;8.598;2022-07-29T13:48:25;32.70;34.20
32147;DHT22;32190;49.112;8.598;2022-07-29T13:54:16;32.60;33.80
32147;DHT22;32190;49.112;8.598;2022-07-29T14:00:07;32.70;34.20
32147;DHT22;32190;49.112;8.598;2022-07-29T14:05:58;32.70;34.30
32147;DHT22;32190;49.112;8.598;2022-07-29T14:11:50;32.90;34.00
32147;DHT22;32190;49.112;8.598;2022-07-29T14:17:41;32.90;33.50
32147;DHT22;32190;49.112;8.598;2022-07-29T14:23:32;33.10;34.60
32147;DHT22;32190;49.112;8.598;2022-07-29T14:29:23;33.30;33.60
32147;DHT22;32190;49.112;8.598;2022-07-29T14:35:13;33.40;32.80
32147;DHT22;32190;49.112;8.598;2022-07-29T14:41:04;33.50;33.10
32147;DHT22;32190;49.112;8.598;2022-07-29T14:46:54;33.60;32.60
32147;DHT22;32190;49.112;8.598;2022-07-29T14:52:45;33.70;32.20
32147;DHT22;32190;49.112;8.598;2022-07-29T14:58:36;33.60;31.60
32147;DHT22;32190;49.112;8.598;2022-07-29T15:04:27;33.60;31.30
32147;DHT22;32190;49.112;8.598;2022-07-29T15:10:17;33.50;31.30
32147;DHT22;32190;49.112;8.598;2022-07-29T15:16:08;33.50;31.50
32147;DHT22;32190;49.112;8.598;2022-07-29T15:21:59;33.50;31.40
32147;DHT22;32190;49.112;8.598;2022-07-29T15:27:50;33.50;30.40
32147;DHT22;32190;49.112;8.598;2022-07-29T15:33:41;33.60;30.50
32147;DHT22;32190;49.112;8.598;2022-07-29T15:39:31;33.60;30.50
32147;DHT22;32190;49.112;8.598;2022-07-29T15:45:22;33.60;30.00
32147;DHT22;32190;49.112;8.598;2022-07-29T15:51:13;33.70;30.00
32147;DHT22;32190;49.112;8.598;2022-07-29T15:57:04;33.70;30.30
32147;DHT22;32190;49.112;8.598;2022-07-29T16:02:55;33.60;29.90
32147;DHT22;32190;49.112;8.598;2022-07-29T16:08:46;33.60;29.70
32147;DHT22;32190;49.112;8.598;2022-07-29T16:14:36;33.60;29.60
32147;DHT22;32190;49.112;8.598;2022-07-29T16:20:27;33.60;30.00
32147;DHT22;32190;49.112;8.598;2022-07-29T16:26:17;33.60;29.60
32147;DHT22;32190;49.112;8.598;2022-07-29T16:32:08;33.60;30.00
32147;DHT22;32190;49.112;8.598;2022-07-29T16:37:58;33.50;29.80
32147;DHT22;32190;49.112;8.598;2022-07-29T16:43:49;33.40;29.60
32147;DHT22;32190;49.112;8.598;2022-07-29T16:49:39;33.40;30.00
32147;DHT22;32190;49.112;8.598;2022-07-29T16:55:30;33.30;29.80
32147;DHT22;32190;49.112;8.598;2022-07-29T17:01:21;33.30;29.70
32147;DHT22;32190;49.112;8.598;2022-07-29T17:07:11;33.20;29.70
32147;DHT22;32190;49.112;8.598;2022-07-29T17:13:02;33.30;30.00
32147;DHT22;32190;49.112;8.598;2022-07-29T17:18:54;33.20;29.90
32147;DHT22;32190;49.112;8.598;2022-07-29T17:24:45;33.30;29.70
32147;DHT22;32190;49.112;8.598;2022-07-29T17:30:36;33.30;29.90
32147;DHT22;32190;49.112;8.598;2022-07-29T17:36:27;33.40;29.80
32147;DHT22;32190;49.112;8.598;2022-07-29T17:42:18;33.40;29.90
32147;DHT22;32190;49.112;8.598;2022-07-29T17:48:08;33.40;30.00
32147;DHT22;32190;49.112;8.598;2022-07-29T17:53:59;33.30;29.90
32147;DHT22;32190;49.112;8.598;2022-07-29T17:59:50;33.30;29.70
32147;DHT22;32190;49.112;8.598;2022-07-29T18:05:40;33.30;29.70
32147;DHT22;32190;49.112;8.598;2022-07-29T18:11:31;33.20;29.90
32147;DHT22;32190;49.112;8.598;2022-07-29T18:17:22;33.20;30.00
32147;DHT22;32190;49.112;8.598;2022-07-29T18:23:13;33.20;30.00
32147;DHT22;32190;49.112;8.598;2022-07-29T18:29:04;33.10;29.30
32147;DHT22;32190;49.112;8.598;2022-07-29T18:34:55;33.00;29.20
32147;DHT22;32190;49.112;8.598;2022-07-29T18:40:46;32.90;29.30
32147;DHT22;32190;49.112;8.598;2022-07-29T18:46:37;32.80;29.70
32147;DHT22;32190;49.112;8.598;2022-07-29T18:52:28;32.70;29.70
32147;DHT22;32190;49.112;8.598;2022-07-29T18:58:18;32.60;29.90
32147;DHT22;32190;49.112;8.598;2022-07-29T19:04:09;32.50;29.80
32147;DHT22;32190;49.112;8.598;2022-07-29T19:09:59;32.40;29.60
32147;DHT22;32190;49.112;8.598;2022-07-29T19:15:50;32.30;30.00
32147;DHT22;32190;49.112;8.598;2022-07-29T19:21:41;32.20;30.00
32147;DHT22;32190;49.112;8.598;2022-07-29T19:27:31;32.10;30.10
32147;DHT22;32190;49.112;8.598;2022-07-29T19:33:22;31.90;30.20
32147;DHT22;32190;49.112;8.598;2022-07-29T19:39:12;31.90;30.60
32147;DHT22;32190;49.112;8.598;2022-07-29T19:45:05;31.80;30.70
32147;DHT22;32190;49.112;8.598;2022-07-29T19:50:55;31.70;30.90
32147;DHT22;32190;49.112;8.598;2022-07-29T19:56:46;31.60;31.10
32147;DHT22;32190;49.112;8.598;2022-07-29T20:02:37;31.50;31.30
32147;DHT22;32190;49.112;8.598;2022-07-29T20:08:28;31.40;31.40
32147;DHT22;32190;49.112;8.598;2022-07-29T20:14:19;31.20;31.60
32147;DHT22;32190;49.112;8.598;2022-07-29T20:20:09;31.10;31.80
32147;DHT22;32190;49.112;8.598;2022-07-29T20:26:00;31.00;31.90
32147;DHT22;32190;49.112;8.598;2022-07-29T20:31:51;30.80;32.00
32147;DHT22;32190;49.112;8.598;2022-07-29T20:37:42;30.70;32.10
32147;DHT22;32190;49.112;8.598;2022-07-29T20:43:33;30.50;32.30
32147;DHT22;32190;49.112;8.598;2022-07-29T20:49:24;30.40;32.60
32147;DHT22;32190;49.112;8.598;2022-07-29T20:55:14;30.40;32.80
32147;DHT22;32190;49.112;8.598;2022-07-29T21:01:06;30.40;32.90
32147;DHT22;32190;49.112;8.598;2022-07-29T21:06:57;30.40;33.00
32147;DHT22;32190;49.112;8.598;2022-07-29T21:12:47;30.30;33.10
32147;DHT22;32190;49.112;8.598;2022-07-29T21:18:42;30.20;33.30
32147;DHT22;32190;49.112;8.598;2022-07-29T21:24:35;30.00;33.50
32147;DHT22;32190;49.112;8.598;2022-07-29T21:30:26;29.90;33.60
32147;DHT22;32190;49.112;8.598;2022-07-29T21:36:16;29.80;34.10
32147;DHT22;32190;49.112;8.598;2022-07-29T21:42:07;29.80;34.00
32147;DHT22;32190;49.112;8.598;2022-07-29T21:47:58;29.70;33.90
32147;DHT22;32190;49.112;8.598;2022-07-29T21:53:48;29.70;34.00
32147;DHT22;32190;49.112;8.598;2022-07-29T21:59:39;29.60;34.20
32147;DHT22;32190;49.112;8.598;2022-07-29T22:05:30;29.40;34.50
32147;DHT22;32190;49.112;8.598;2022-07-29T22:11:21;29.20;34.60
32147;DHT22;32190;49.112;8.598;2022-07-29T22:17:12;29.20;34.80
32147;DHT22;32190;49.112;8.598;2022-07-29T22:23:02;29.20;35.00
32147;DHT22;32190;49.112;8.598;2022-07-29T22:28:53;29.10;35.10
32147;DHT22;32190;49.112;8.598;2022-07-29T22:34:43;29.20;35.30
32147;DHT22;32190;49.112;8.598;2022-07-29T22:40:34;29.10;35.10
32147;DHT22;32190;49.112;8.598;2022-07-29T22:46:24;29.10;35.10
32147;DHT22;32190;49.112;8.598;2022-07-29T22:52:15;29.20;35.50
32147;DHT22;32190;49.112;8.598;2022-07-29T22:58:05;29.10;35.50
32147;DHT22;32190;49.112;8.598;2022-07-29T23:03:56;29.10;35.80
32147;DHT22;32190;49.112;8.598;2022-07-29T23:09:47;29.00;35.90
32147;DHT22;32190;49.112;8.598;2022-07-29T23:15:37;28.90;35.80
32147;DHT22;32190;49.112;8.598;2022-07-29T23:21:28;28.80;35.80
32147;DHT22;32190;49.112;8.598;2022-07-29T23:27:18;28.80;35.90
32147;DHT22;32190;49.112;8.598;2022-07-29T23:33:09;28.80;36.10
32147;DHT22;32190;49.112;8.598;2022-07-29T23:38:59;28.70;36.10
32147;DHT22;32190;49.112;8.598;2022-07-29T23:44:50;28.60;36.10
32147;DHT22;32190;49.112;8.598;2022-07-29T23:50:41;28.60;36.30
32147;DHT22;32190;49.112;8.598;2022-07-29T23:56:31;28.40;36.40
